Date,TemperatureHighF,TemperatureAvgF,TemperatureLowF,DewpointHighF,DewpointAvgF,DewpointLowF,HumidityHigh,HumidityAvg,HumidityLow,PressureMaxIn,PressureMinIn,WindSpeedMaxMPH,WindSpeedAvgMPH,GustSpeedMaxMPH,PrecipitationSumIn
2013-3-3,37.6,33.5,27.6,26.0,23.9,19.4,75,68,60,29.54,29.49,12,5,14,0.02
2013-3-4,31.9,28.4,25.4,21.2,18.5,15.7,75,66,57,29.68,29.47,15,9,20,0.00
2013-3-5,39.8,34.0,28.7,30.5,25.0,20.8,90,70,57,30.04,29.69,11,4,12,0.00
2013-3-6,32.8,30.8,27.9,29.3,26.0,21.4,91,82,70,30.19,30.05,13,9,17,0.00
2013-3-7,31.9,29.4,26.7,22.5,21.1,19.9,79,71,63,30.17,30.04,11,6,17,0.00
2013-3-8,43.2,36.1,30.1,22.0,16.8,12.8,71,47,29,30.17,29.99,11,4,12,0.00
2013-3-9,53.3,41.5,31.9,20.5,12.6,4.0,59,33,14,30.28,30.14,8,2,12,0.00
2013-3-10,45.4,33.9,25.4,27.3,21.9,19.1,79,63,40,30.33,30.20,7,2,16,0.00
2013-3-11,47.6,40.5,30.1,30.5,27.9,26.2,91,62,43,30.20,30.03,4,1,11,0.00
2013-3-12,44.8,40.6,36.9,44.5,39.0,31.0,99,94,76,30.03,29.64,5,1,12,1.88
2013-3-13,43.8,38.8,31.9,43.5,30.3,21.4,99,73,49,29.67,29.61,10,3,17,0.00
2013-3-14,33.4,26.9,14.6,21.4,13.3,-2.7,70,57,45,29.70,29.57,16,7,35,0.00
2013-3-15,34.7,22.9,12.1,22.1,7.0,-2.9,84,53,24,29.73,29.53,14,5,30,0.00
2013-3-16,28.5,23.5,20.5,17.3,9.5,5.7,85,56,40,29.82,29.57,11,6,20,0.00
2013-3-17,24.4,18.8,14.6,8.5,1.2,-9.0,72,47,31,30.24,29.82,19,5,33,0.00
2013-3-18,34.4,22.9,9.9,5.6,-2.3,-8.0,52,34,22,30.38,30.20,5,2,14,0.00
2013-3-19,27.0,23.8,20.3,22.8,19.7,7.4,92,85,43,30.18,29.69,9,4,26,0.00
2013-3-20,31.3,25.8,18.9,24.7,17.8,12.5,92,73,50,29.68,29.56,12,4,26,0.15
2013-3-21,38.0,27.9,19.5,13.5,10.3,5.2,69,49,27,29.69,29.52,5,2,12,0.08
2013-3-22,34.9,28.4,21.8,18.4,12.9,9.4,69,53,36,29.60,29.54,8,4,24,0.00
2013-3-23,34.0,28.0,23.5,23.7,17.9,14.5,80,66,49,29.64,29.47,16,8,37,0.00
2013-3-24,40.8,33.8,28.7,22.1,20.7,18.9,73,59,44,29.73,29.62,15,6,31,0.00
2013-3-25,39.3,34.7,25.8,26.3,23.1,19.8,79,63,51,29.71,29.53,9,4,20,0.00
2013-3-26,43.8,36.4,30.0,23.3,20.0,15.8,67,52,32,29.68,29.53,13,5,25,0.00
2013-3-27,45.1,38.6,33.7,30.2,24.2,20.7,81,57,39,29.81,29.65,13,6,25,0.00
2013-3-28,45.1,38.3,32.2,32.0,29.4,24.8,92,72,45,29.93,29.81,6,2,19,0.00
2013-3-29,47.6,41.7,38.3,32.2,29.3,26.0,76,62,48,29.95,29.89,14,7,25,0.00
2013-3-30,48.9,40.3,31.3,29.2,20.0,8.2,72,48,20,30.02,29.93,8,4,18,0.00
2013-3-31,52.9,39.6,26.7,34.8,18.7,13.7,85,45,23,30.04,29.74,10,2,18,0.01
2013-4-1,49.4,35.0,27.8,40.0,27.8,9.8,97,77,46,29.73,29.43,12,4,25,0.47
2013-4-2,33.2,25.8,21.9,14.6,9.9,5.6,72,51,31,29.75,29.62,11,6,27,0.00
2013-4-3,38.0,28.1,23.6,17.6,9.5,2.5,76,47,23,30.00,29.73,17,8,37,0.00
2013-4-4,51.7,36.5,27.0,14.1,7.8,2.4,52,32,16,30.14,29.87,17,8,37,0.00
2013-4-5,53.3,41.9,30.6,24.7,18.9,12.7,61,41,23,29.85,29.62,13,5,26,0.00
2013-4-6,37.0,27.7,19.7,20.1,3.4,-3.0,80,37,19,30.27,29.78,24,9,38,0.00
2013-4-7,51.1,38.5,25.6,30.5,15.4,2.8,59,40,24,30.26,29.83,5,1,16,0.00
2013-4-8,59.0,49.1,41.8,34.3,28.3,19.9,69,47,22,30.05,29.79,11,3,22,0.00
2013-4-9,50.5,41.0,36.8,39.6,35.7,28.1,98,82,60,30.02,29.82,19,2,27,0.30
2013-4-10,52.9,43.8,37.6,43.1,38.4,35.4,98,83,57,29.91,29.82,10,3,21,0.10
2013-4-11,48.9,41.1,35.0,39.3,21.6,6.4,98,52,21,30.08,29.80,7,2,16,0.00
2013-4-12,34.9,29.6,26.9,27.9,21.6,11.9,95,74,42,30.19,29.86,5,3,15,0.03
2013-4-13,42.6,36.3,29.4,36.0,32.7,27.8,96,87,73,29.87,29.73,7,1,16,0.50
2013-4-14,47.0,38.8,32.5,36.5,31.1,27.3,97,76,48,30.11,29.81,12,4,29,0.03
2013-4-15,53.8,42.8,32.1,32.5,26.9,23.0,77,56,31,30.30,30.11,8,2,21,0.00
2013-4-16,55.7,44.2,32.9,50.9,38.5,30.0,95,81,52,30.30,29.86,5,1,20,0.12
2013-4-17,54.8,48.2,38.8,46.3,27.0,21.2,74,45,27,30.27,29.87,15,7,30,0.00
2013-4-18,50.1,42.4,31.6,34.2,26.2,16.8,71,54,35,30.40,30.05,8,2,15,0.00
2013-4-19,70.4,59.7,44.5,58.4,49.9,32.8,85,71,56,30.02,29.46,8,4,28,0.00
2013-4-20,62.3,47.4,36.0,58.7,30.4,17.1,91,55,29,30.09,29.47,13,7,25,0.13
2013-4-21,48.9,38.2,29.5,18.0,12.9,8.4,58,37,19,30.64,30.12,14,5,29,0.00
2013-4-22,50.1,38.3,27.9,26.0,13.7,3.8,74,39,18,30.73,30.59,10,3,19,0.00
2013-4-23,39.6,35.0,27.8,36.3,29.5,21.5,96,80,68,30.57,30.19,5,1,11,0.00
2013-4-24,70.4,54.4,37.3,51.6,44.3,36.5,98,72,35,30.15,29.64,9,2,18,0.01
2013-4-25,55.9,50.3,39.6,48.8,29.7,18.1,87,48,27,30.23,29.63,15,6,28,0.00
2013-4-26,58.7,46.3,31.8,32.7,24.9,20.5,66,45,26,30.36,30.23,6,1,13,0.00
2013-4-27,62.0,48.8,37.2,33.9,29.9,23.1,75,52,26,30.35,30.20,5,1,12,0.00
2013-4-28,66.8,51.3,36.9,33.8,31.1,29.0,75,50,25,30.26,30.12,7,2,18,0.00
2013-4-29,67.6,51.5,40.6,41.9,34.1,30.6,71,54,26,30.18,30.08,8,2,16,0.00
2013-4-30,69.9,57.0,42.5,38.9,33.9,27.9,79,46,25,30.28,30.15,10,2,20,0.00
2013-5-1,75.4,60.3,41.9,35.7,31.3,27.5,64,37,17,30.36,30.28,7,2,18,0.00
2013-5-2,74.4,55.6,44.1,43.0,34.1,28.1,60,46,24,30.42,30.29,10,2,17,0.00
2013-5-3,66.3,51.7,35.5,41.0,34.9,29.1,79,55,35,30.48,30.30,6,1,18,0.00
2013-5-4,69.6,54.4,42.2,42.0,36.2,24.7,87,56,19,30.30,30.16,10,3,20,0.00
2013-5-5,71.6,52.8,36.8,37.9,34.1,29.0,89,55,22,30.25,30.11,6,2,16,0.00
2013-5-6,73.2,56.1,39.5,43.4,34.8,22.7,85,53,16,30.17,30.02,8,2,17,0.00
2013-5-7,79.0,61.9,43.8,48.5,39.2,29.9,78,49,17,30.07,29.96,8,2,16,0.00
2013-5-8,75.1,62.4,52.0,57.3,51.4,45.0,96,69,38,30.11,30.01,8,3,23,0.08
2013-5-9,67.6,58.1,55.0,59.0,56.1,54.4,99,94,64,29.98,29.81,8,1,12,0.58
2013-5-10,70.9,61.4,53.1,61.0,56.3,52.8,99,85,56,29.85,29.80,5,0,12,0.04
2013-5-11,60.9,56.7,52.9,60.6,56.1,52.6,99,98,85,29.81,29.58,4,1,11,0.53
2013-5-12,67.3,56.1,44.1,58.4,46.1,22.6,99,73,39,29.64,29.45,8,2,19,0.01
2013-5-13,52.8,44.6,38.0,29.7,25.1,22.4,64,47,31,29.96,29.65,8,4,26,0.00
2013-5-14,56.7,47.0,34.4,29.3,22.9,16.2,79,41,25,29.96,29.89,10,3,23,0.00
2013-5-15,64.8,47.1,33.1,46.5,33.0,24.2,98,64,25,29.96,29.58,7,2,19,0.17
2013-5-16,73.2,56.1,44.2,53.6,41.5,30.3,99,67,22,29.73,29.49,13,3,29,0.00
2013-5-17,63.9,53.6,46.0,39.5,36.5,31.8,73,54,35,30.15,29.72,10,3,24,0.00
2013-5-18,66.4,56.3,42.8,45.0,39.5,31.0,88,57,27,30.24,30.15,6,2,15,0.00
2013-5-19,60.7,50.7,40.1,50.5,45.6,39.1,98,84,60,30.28,30.13,6,2,14,0.18
2013-5-20,69.9,58.1,48.9,60.9,52.4,48.6,99,84,54,30.11,29.85,9,2,21,0.37
2013-5-21,55.4,52.0,48.2,55.1,50.7,47.6,99,96,88,29.99,29.87,6,1,19,0.54
2013-5-22,57.5,51.9,47.6,52.5,50.4,47.3,99,95,83,29.91,29.85,4,1,12,0.20
2013-5-23,68.1,57.9,48.8,63.5,56.3,48.5,100,95,81,29.86,29.67,6,1,14,0.08
2013-5-24,64.0,58.1,46.0,63.7,54.5,42.2,99,88,65,29.78,29.55,7,2,21,0.90
2013-5-25,47.0,43.3,38.3,42.3,39.1,34.1,92,85,75,29.78,29.65,8,4,25,0.85
2013-5-26,52.2,45.2,38.6,37.8,34.5,28.2,86,67,46,29.92,29.61,13,6,30,0.04
2013-5-27,63.2,51.8,37.5,37.1,32.4,26.2,84,51,27,30.11,29.93,11,4,31,0.00
2013-5-28,70.6,57.8,39.3,41.0,36.4,31.6,87,50,24,30.16,30.07,6,2,18,0.00
2013-5-29,55.4,50.5,47.3,53.7,47.7,39.9,99,90,68,30.11,29.93,2,0,6,0.23
2013-5-30,83.6,70.7,52.2,60.4,57.0,51.9,100,65,38,29.96,29.90,12,4,26,0.00
2013-5-31,89.7,76.4,60.9,65.4,60.9,58.2,92,62,37,29.97,29.81,4,1,12,0.00
2013-6-1,92.1,77.7,64.8,66.8,60.6,53.7,88,59,28,29.83,29.71,10,1,24,0.01
2013-6-2,91.0,76.8,66.0,69.4,64.5,61.6,88,68,41,29.72,29.52,8,2,21,0.00
2013-6-3,66.3,63.3,61.5,61.4,60.8,60.4,97,92,83,29.69,29.68,1,0,2,0.00
2013-6-4,61.3,55.5,51.0,42.1,39.5,37.7,67,55,44,30.00,29.77,11,7,17,0.00
2013-6-5,70.6,60.8,46.8,42.9,36.1,28.4,78,43,22,30.08,30.00,6,2,6,0.00
2013-6-6,69.6,59.1,50.8,50.0,41.5,35.0,84,54,34,30.14,30.05,6,2,9,0.00
2013-6-7,53.5,51.5,49.1,51.1,49.1,44.5,96,92,79,30.06,29.92,5,0,7,0.51
2013-6-8,71.6,58.6,50.8,57.9,52.5,49.1,96,81,59,29.89,29.65,13,3,18,0.62
2013-6-9,72.8,64.2,54.2,55.5,51.3,49.1,88,64,45,30.08,29.90,9,3,11,0.00
2013-6-10,69.3,59.6,51.1,56.4,51.5,46.6,92,76,49,30.13,29.96,4,1,7,0.00
2013-6-11,56.9,53.9,52.0,54.3,51.8,50.6,97,92,85,29.96,29.51,6,2,6,0.90
2013-6-12,60.7,56.8,52.2,51.7,50.1,46.8,97,79,67,29.74,29.48,6,3,11,0.02
2013-6-13,69.3,59.4,50.2,53.8,49.9,43.4,92,72,49,29.73,29.64,5,1,7,0.00
2013-6-14,76.0,63.4,52.0,55.2,48.6,39.6,98,65,28,29.67,29.60,8,2,9,0.00
2013-6-15,72.7,63.2,51.3,45.2,39.8,33.4,65,44,27,29.83,29.68,8,3,16,0.00
2013-6-16,77.0,60.5,51.1,58.9,51.2,43.0,98,74,37,29.83,29.62,6,1,9,0.12
2013-6-17,76.5,62.4,54.7,62.9,56.3,51.8,96,82,48,29.79,29.65,6,2,11,0.41
2013-6-18,65.3,58.6,51.0,54.3,51.2,46.8,93,77,59,29.89,29.79,6,1,16,0.01
2013-6-19,73.2,60.6,47.0,48.3,41.6,33.7,87,53,27,30.08,29.87,6,1,9,0.00
2013-6-20,77.2,61.5,45.1,47.2,43.1,36.5,85,55,23,30.17,30.09,7,1,11,0.00
2013-6-21,80.3,64.5,52.6,55.5,48.6,44.0,78,59,31,30.15,30.11,5,1,13,0.00
2013-6-22,77.9,65.8,58.1,66.4,58.0,49.2,97,77,49,30.13,30.05,6,0,8,0.21
2013-6-23,78.6,67.9,61.8,70.9,65.1,61.2,99,91,76,30.05,29.90,8,2,14,0.64
2013-6-24,90.1,73.9,63.9,69.9,65.2,61.4,99,77,44,29.89,29.77,11,3,12,0.02
2013-6-25,89.5,75.5,65.8,67.8,63.6,54.4,97,69,43,29.77,29.61,10,2,17,0.05
2013-6-26,72.1,67.4,60.7,68.5,64.8,60.1,98,92,83,29.77,29.62,4,0,5,0.04
2013-6-27,70.6,61.8,57.5,64.7,60.2,57.2,100,95,78,29.78,29.71,5,2,6,0.01
2013-6-28,62.1,58.9,56.2,61.2,58.3,55.4,99,98,96,29.73,29.46,7,2,9,1.04
2013-6-29,77.2,65.1,60.5,68.0,63.4,60.2,100,95,68,29.59,29.44,4,1,7,0.99
2013-6-30,85.1,72.2,60.7,69.0,64.5,59.7,100,80,44,29.81,29.59,3,0,6,0.01
2013-7-1,77.0,51.3,68.1,68.8,18.5,-99.9,98,60,71,30.00,29.81,3,-291,5,0.50
2013-7-2,-200.0,0.0,200.0,-99.9,-99.9,-99.9,0,0,100,30.16,29.97,0,-999,0,0.00
2013-7-3,87.8,41.7,61.0,72.7,-8.5,-99.9,100,42,55,30.14,29.96,5,-456,5,0.00
2013-7-4,81.4,71.8,66.9,72.0,68.3,66.0,98,89,68,30.07,30.04,1,0,3,0.00
2013-7-6,71.6,71.6,71.5,65.5,62.9,57.9,81,75,62,29.93,29.90,2,1,2,0.00
2013-7-7,86.7,78.4,70.6,68.8,65.4,59.3,84,66,46,29.89,29.81,4,1,5,0.00
2013-7-8,70.9,68.4,65.0,69.1,66.3,64.1,99,93,79,29.99,29.82,3,0,4,0.58
2013-7-9,71.5,66.4,64.2,67.5,65.1,64.2,100,96,84,30.04,29.98,6,1,9,0.16
2013-7-10,65.0,64.0,62.7,65.0,64.0,62.7,100,100,98,29.99,29.71,2,0,4,0.75
2013-7-11,80.1,67.9,62.9,68.9,62.1,55.5,100,84,53,29.90,29.68,5,1,7,0.22
2013-7-12,77.7,67.3,56.5,61.8,57.6,53.3,89,72,51,30.13,29.91,5,1,5,0.00
2013-7-13,80.5,69.1,58.3,65.1,60.5,56.6,97,76,44,30.23,30.15,3,1,6,0.00
2013-7-14,83.4,74.0,62.7,70.4,65.8,61.5,97,77,57,30.20,30.09,4,1,7,0.00
2013-7-15,89.3,75.4,65.3,69.3,64.1,58.9,93,71,43,30.11,30.00,7,1,11,0.00
2013-7-16,88.8,78.7,68.9,70.6,64.0,61.0,80,62,45,30.08,30.03,5,1,8,0.00
2013-7-17,92.7,77.0,65.0,70.5,65.7,61.0,96,70,39,30.08,29.87,5,1,5,0.17
2013-7-18,90.3,77.7,69.4,72.2,68.4,63.7,97,75,48,29.91,29.83,4,1,6,0.15
2013-7-19,90.3,75.7,66.9,73.7,68.5,63.2,99,81,50,29.84,29.54,17,2,29,0.08
2013-7-20,85.9,75.7,68.3,68.1,63.9,55.3,90,68,51,29.68,29.51,7,2,13,0.01
2013-7-21,80.1,69.0,59.3,61.9,58.4,49.8,88,71,35,29.93,29.72,4,1,11,0.00
2013-7-22,70.6,64.2,57.0,64.2,59.2,54.0,93,84,65,29.97,29.85,4,1,5,0.00
2013-7-23,67.4,63.5,60.5,66.8,62.9,59.6,99,98,93,29.83,29.47,2,0,4,1.27
2013-7-24,76.3,65.4,53.9,68.8,58.6,44.7,100,81,53,29.90,29.50,10,2,15,0.00
2013-7-25,72.1,59.6,48.6,57.2,49.3,43.3,86,70,49,30.04,29.91,6,1,12,0.00
2013-7-26,70.9,64.4,59.9,61.4,58.6,54.0,94,82,67,30.03,29.86,5,1,5,0.06
2013-7-27,82.2,69.4,61.0,63.2,59.3,54.8,88,72,41,29.93,29.86,6,1,7,0.00
2013-7-28,75.8,65.9,57.5,65.1,61.5,56.1,98,86,64,29.95,29.91,6,2,9,0.08
2013-7-29,77.4,66.4,60.1,68.0,63.0,57.7,99,90,63,29.97,29.87,5,1,12,0.12
2013-7-30,76.1,65.9,57.2,58.9,53.7,48.1,99,68,39,30.01,29.95,8,2,9,0.00
2013-7-31,79.4,67.1,57.5,58.6,55.1,50.4,87,67,38,30.05,29.94,6,1,9,0.00
2013-8-1,76.8,63.4,55.1,62.8,59.0,53.1,99,87,51,29.95,29.76,7,2,13,0.17
2013-8-2,79.2,67.7,59.8,67.8,59.1,52.7,100,77,40,29.76,29.65,5,1,7,0.25
2013-8-3,76.5,65.6,53.9,58.5,54.1,50.9,96,69,43,29.75,29.65,6,2,12,0.00
2013-8-4,72.7,63.7,58.1,54.5,51.5,46.9,80,65,51,29.77,29.67,8,4,12,0.00
2013-8-5,69.8,60.8,52.5,49.4,44.8,34.9,75,57,33,29.96,29.75,11,5,15,0.00
2013-8-6,74.6,62.4,49.2,53.5,48.9,44.6,85,64,40,30.07,29.96,6,1,11,0.00
2013-8-7,77.4,62.5,51.0,58.5,53.0,49.3,95,73,47,30.10,30.01,4,1,11,0.00
2013-8-8,77.2,65.6,58.1,67.8,62.1,54.3,99,89,71,30.00,29.90,8,2,10,0.08
2013-8-9,69.3,67.2,62.6,69.0,66.8,62.3,99,99,95,29.92,29.65,3,0,7,1.88
2013-8-10,72.0,66.3,58.4,63.6,52.4,40.7,99,64,33,29.91,29.67,12,5,19,0.00
2013-8-11,77.2,64.2,55.7,54.0,48.9,45.1,83,59,37,29.96,29.90,7,2,10,0.00
2013-8-12,79.0,65.2,54.5,57.4,53.0,50.8,91,68,38,29.93,29.82,4,1,7,0.00
2013-8-13,65.3,60.9,56.2,62.6,58.6,52.7,99,92,79,29.83,29.61,2,0,5,0.70
2013-8-14,69.3,62.2,57.6,63.3,54.4,46.4,100,78,49,29.80,29.56,11,3,17,0.00
2013-8-15,71.5,60.6,53.2,52.8,48.4,45.4,88,65,43,30.01,29.82,7,3,13,0.00
2013-8-16,76.0,62.5,49.9,59.2,52.4,47.7,93,72,44,30.10,29.99,3,0,5,0.00
2013-8-17,75.8,64.1,53.8,55.9,51.3,45.0,94,66,35,30.20,30.12,7,2,13,0.00
2013-8-18,76.7,62.6,51.4,62.2,53.5,47.6,90,73,48,30.21,29.98,3,0,6,0.00
2013-8-19,78.5,68.7,56.6,60.3,55.4,50.3,90,64,44,29.97,29.83,10,4,16,0.00
2013-8-20,83.0,72.3,63.1,61.2,57.6,54.1,82,62,39,30.00,29.87,6,2,11,0.00
2013-8-21,85.7,72.6,61.0,64.5,60.6,57.5,89,68,40,30.05,29.90,6,2,10,0.00
2013-8-22,85.5,73.2,62.6,65.4,60.4,56.8,86,66,38,29.90,29.68,8,1,8,0.00
2013-8-23,73.0,66.3,56.5,60.4,49.8,42.6,73,57,34,30.08,29.69,10,3,12,0.00
2013-8-24,76.3,61.9,47.1,52.4,46.1,39.4,86,60,27,30.24,30.09,3,1,6,0.00
2013-8-25,78.5,62.8,49.9,54.9,48.8,42.2,84,63,30,30.28,30.06,7,1,11,0.00
2013-8-26,75.3,65.0,57.8,64.8,60.3,52.2,98,85,67,30.05,29.79,9,1,14,0.05
2013-8-27,81.6,71.1,62.3,66.9,63.2,60.8,96,78,53,29.81,29.75,4,0,9,0.00
2013-8-28,82.8,69.6,60.2,67.3,62.9,59.1,96,81,55,29.92,29.77,5,1,9,0.12
2013-8-29,64.7,61.1,59.0,63.2,60.0,58.4,99,96,88,30.02,29.89,5,0,10,0.21
2013-8-30,82.6,67.8,58.0,66.5,62.0,57.7,100,84,51,29.95,29.70,5,1,5,0.03
2013-8-31,78.5,69.4,64.5,68.8,66.0,63.5,98,90,68,29.72,29.67,5,1,8,0.04
2013-9-1,83.0,71.5,65.3,69.0,66.2,64.3,99,85,54,29.81,29.68,5,1,9,0.06
2013-9-2,68.8,65.9,64.0,66.2,64.5,63.4,99,95,86,29.79,29.66,4,1,4,1.52
2013-9-3,72.3,65.4,60.5,67.2,61.6,54.8,100,88,73,29.68,29.61,6,1,9,0.12
2013-9-4,74.9,66.0,60.1,56.6,52.6,44.8,86,64,35,29.81,29.67,10,5,15,0.00
2013-9-5,63.4,56.7,47.6,55.3,43.5,33.6,95,64,34,30.07,29.77,10,3,13,0.02
2013-9-6,69.6,55.4,39.3,43.3,39.3,35.5,90,57,32,30.15,29.95,6,2,9,0.00
2013-9-7,71.5,61.3,51.7,55.6,48.6,38.8,75,63,48,29.94,29.71,7,2,11,0.00
2013-9-8,62.7,55.5,44.8,54.9,44.7,33.4,94,68,48,30.00,29.64,15,4,30,0.08
2013-9-9,67.6,53.2,39.8,47.3,41.5,34.7,88,66,39,30.12,30.00,5,1,9,0.00
2013-9-10,63.7,56.7,48.2,61.6,53.4,44.3,98,89,77,30.02,29.94,3,0,4,0.04
2013-9-11,91.2,72.8,60.5,71.4,66.0,60.2,100,83,44,29.96,29.81,7,1,11,0.47
2013-9-12,77.0,67.4,63.1,69.7,65.1,62.5,99,93,77,29.88,29.57,8,1,10,0.70
2013-9-13,63.4,59.5,53.9,63.1,57.9,50.9,99,94,84,29.67,29.51,5,1,10,0.49
2013-9-14,64.8,56.4,49.1,55.0,49.8,43.6,97,80,59,29.95,29.67,8,2,10,0.09
2013-9-15,68.4,55.0,44.1,50.9,45.4,39.6,88,71,48,30.05,29.91,5,1,9,0.00
2013-9-16,58.9,52.2,42.3,51.3,43.4,28.4,92,73,47,30.20,29.89,11,3,14,0.02
2013-9-17,65.6,51.0,38.8,41.8,35.7,30.6,86,58,29,30.35,30.20,5,2,10,0.00
2013-9-18,69.1,54.3,41.3,49.1,41.8,33.8,90,65,32,30.24,30.04,5,1,8,0.00
2013-9-19,73.2,59.9,49.8,54.8,47.2,39.9,83,64,45,30.05,29.94,5,1,9,0.00
2013-9-20,73.3,59.7,49.4,56.5,50.1,44.4,93,72,46,30.03,29.92,4,1,9,0.00
2013-9-21,68.8,56.9,47.4,60.8,53.7,46.9,99,90,55,29.92,29.65,6,1,9,0.03
2013-9-22,69.1,59.2,47.9,62.0,52.3,38.6,97,79,54,29.70,29.48,11,5,21,0.60
2013-9-23,50.8,47.1,43.1,40.5,36.5,33.8,79,67,59,29.89,29.70,13,8,21,0.00
2013-9-24,56.6,48.2,43.5,42.2,38.4,34.3,87,69,52,29.87,29.74,15,7,19,0.00
2013-9-25,58.7,48.8,42.5,47.5,42.5,40.2,92,79,64,29.94,29.80,5,1,9,0.00
2013-9-26,64.7,49.6,40.2,47.6,43.3,38.9,96,81,51,30.09,29.94,6,1,11,0.00
2013-9-27,69.6,55.7,49.1,54.3,48.3,46.0,89,77,51,30.20,30.08,3,0,3,0.00
2013-9-28,71.3,57.6,48.2,53.3,49.1,46.4,95,76,46,30.28,30.20,4,1,9,0.00
2013-9-29,68.8,55.1,46.4,53.1,48.5,45.6,98,81,49,30.19,30.03,5,1,7,0.01
2013-9-30,69.4,53.7,43.6,52.7,47.8,42.8,98,83,48,30.04,29.91,3,1,7,0.01
2013-10-1,76.3,58.4,47.3,55.1,49.9,45.7,97,77,35,29.91,29.76,5,1,7,0.01
2013-10-2,74.4,62.5,54.7,57.0,51.5,45.4,91,69,49,29.81,29.70,9,2,14,0.00
2013-10-3,70.9,61.3,50.2,48.0,44.3,39.2,81,55,36,29.99,29.81,12,4,21,0.00
2013-10-4,65.2,55.7,47.6,53.2,47.9,42.4,87,76,60,30.03,29.96,3,0,4,0.00
2013-10-5,59.9,55.2,49.8,49.4,45.7,40.0,87,71,52,30.08,30.00,4,1,4,0.00
2013-10-6,51.7,47.9,43.6,44.2,39.8,34.4,97,75,55,30.21,30.08,3,0,4,0.19
2013-10-7,62.3,50.9,44.6,62.0,50.0,43.8,99,97,75,30.14,29.65,5,1,16,0.65
2013-10-8,57.5,50.8,40.8,45.0,37.0,33.2,80,60,42,30.32,29.77,13,6,26,0.00
2013-10-9,59.9,46.1,34.7,42.2,36.1,31.2,91,70,42,30.43,30.29,4,1,10,0.00
2013-10-10,63.4,48.4,39.1,45.3,39.8,36.0,93,74,38,30.29,30.13,3,0,5,0.00
2013-10-11,67.4,55.0,48.3,48.9,42.9,36.6,78,65,39,30.13,30.07,2,0,3,0.00
2013-10-12,54.5,52.1,48.9,50.4,48.9,44.3,98,89,75,30.34,30.13,4,1,12,0.00
2013-10-13,52.8,49.4,47.3,48.3,46.8,45.8,99,91,79,30.39,30.31,3,1,6,0.00
2013-10-14,61.8,52.6,45.4,52.2,47.2,43.8,95,83,64,30.31,30.15,4,1,6,0.00
2013-10-15,62.7,56.1,49.9,51.8,50.1,47.7,95,81,61,30.21,30.11,4,1,10,0.00
2013-10-16,56.5,52.4,47.0,50.7,49.0,45.5,96,88,75,30.10,29.83,4,1,7,0.00
2013-10-17,68.1,52.7,46.4,52.3,46.3,43.6,97,82,43,29.81,29.64,7,1,16,0.00
2013-10-18,60.5,54.0,49.1,51.2,44.8,32.9,99,73,52,29.76,29.53,10,3,19,0.43
2013-10-19,63.2,52.4,46.4,44.2,38.5,33.5,74,60,37,29.84,29.64,7,2,13,0.00
2013-10-20,55.0,49.7,44.2,44.9,36.9,27.3,94,64,39,29.88,29.57,10,4,20,0.02
2013-10-21,58.4,47.8,38.0,40.9,36.2,31.6,80,65,49,30.00,29.88,4,1,13,0.00
2013-10-22,50.7,46.9,42.1,48.0,39.6,27.9,97,77,54,29.87,29.62,8,3,18,0.05
2013-10-23,49.5,42.6,36.8,32.1,28.1,25.0,74,57,43,29.68,29.52,7,2,14,0.00
2013-10-24,43.3,39.7,35.0,34.6,26.6,20.8,91,60,43,29.75,29.54,11,5,23,0.02
2013-10-25,42.3,38.2,35.6,31.8,26.1,22.3,86,62,49,30.02,29.75,13,7,27,0.00
2013-10-26,43.1,37.2,29.0,30.3,25.2,21.0,76,62,49,30.03,29.77,6,2,18,0.00
2013-10-27,48.0,40.7,35.6,33.9,30.0,25.1,84,66,52,29.92,29.69,9,3,21,0.00
2013-10-28,47.1,37.7,30.6,34.3,26.9,17.4,82,66,47,30.26,29.92,15,5,34,0.01
2013-10-29,43.3,33.3,24.7,18.6,16.3,11.6,69,51,30,30.39,30.27,5,1,6,0.00
2013-10-30,44.6,36.3,27.3,28.3,21.8,11.9,72,56,47,30.29,30.12,10,4,17,0.00
2013-10-31,48.9,40.2,32.4,48.6,37.0,27.4,99,89,72,30.16,29.66,4,1,5,0.63
2013-11-1,64.2,58.8,50.5,58.8,48.8,37.6,99,72,44,29.63,29.22,18,6,20,0.91
2013-11-2,59.0,51.3,38.5,42.8,39.0,29.2,85,64,45,29.69,29.48,11,4,24,0.00
2013-11-3,39.9,33.8,26.7,29.1,17.4,8.3,75,53,28,30.36,29.69,7,4,29,0.00
2013-11-4,41.8,31.7,23.9,16.0,12.6,9.7,68,46,28,30.65,30.36,3,1,4,0.00
2013-11-5,41.3,32.0,23.9,24.8,20.2,14.9,73,62,46,30.65,30.43,6,1,6,0.00
2013-11-6,53.8,43.5,32.2,40.7,34.9,24.5,80,72,58,30.41,29.87,4,1,6,0.00
2013-11-7,53.9,44.9,34.9,50.0,38.1,22.4,98,78,55,29.86,29.59,16,5,17,0.16
2013-11-8,37.5,34.5,32.1,26.6,21.8,17.8,69,60,51,29.89,29.69,18,9,20,0.00
2013-11-10,39.1,35.5,30.1,35.6,33.4,29.1,96,92,74,29.80,29.63,10,2,11,0.10
2013-11-11,42.1,36.4,31.9,31.5,26.7,23.1,81,68,48,29.93,29.69,20,6,21,0.00
2013-11-12,36.6,26.7,23.0,33.1,16.4,10.6,90,65,56,30.05,29.73,18,7,29,0.01
2013-11-13,28.7,24.7,19.1,16.9,10.5,6.6,64,55,42,30.16,29.98,19,9,27,0.00
2013-11-14,42.6,34.9,25.3,27.6,23.2,15.5,83,63,52,29.99,29.91,16,6,24,0.00
2013-11-15,48.5,37.9,29.3,26.6,21.9,17.4,86,55,31,30.11,29.99,4,1,8,0.00
2013-11-16,53.8,43.0,35.6,24.2,21.3,16.7,63,44,24,30.26,30.09,5,1,5,0.00
2013-11-17,41.5,36.9,32.4,41.0,32.2,23.7,98,84,63,30.28,29.85,4,1,4,0.32
2013-11-18,57.3,48.4,41.3,49.6,37.9,24.9,99,70,43,29.83,29.38,13,4,20,0.72
2013-11-19,42.9,31.5,26.7,27.3,16.7,10.3,64,54,46,30.18,29.47,24,14,32,0.00
2013-11-20,38.9,29.3,23.6,11.2,7.6,-1.0,58,42,20,30.57,30.19,10,4,15,0.00
2013-11-21,41.5,32.0,23.2,14.1,7.6,3.1,54,36,23,30.57,30.25,4,1,7,0.00
2013-11-22,34.9,33.0,30.7,32.9,26.3,8.7,98,80,36,30.25,29.69,2,0,3,0.03
2013-11-23,39.8,29.3,21.1,36.7,18.6,10.5,99,65,47,29.80,29.61,18,8,36,0.01
2013-11-24,20.8,15.1,11.4,11.5,3.0,-2.3,85,58,47,30.02,29.66,21,10,34,0.00
2013-11-25,25.3,17.9,9.9,7.1,-1.0,-9.0,57,44,24,30.23,30.06,20,8,24,0.00
2013-11-26,29.0,25.5,20.3,26.3,21.3,6.9,96,85,49,30.23,30.09,3,1,5,0.02
2013-11-27,44.6,36.7,27.0,44.3,35.2,24.4,99,94,66,30.06,29.15,21,3,24,1.31
2013-11-28,33.2,21.3,16.2,25.2,9.2,2.7,76,59,45,30.32,29.22,19,10,24,0.00
2013-11-29,24.5,17.4,10.9,4.4,1.6,-3.8,70,51,29,30.68,30.32,13,5,17,0.00
2013-11-30,25.6,16.8,7.4,16.8,5.7,0.3,84,63,42,30.76,30.35,5,1,7,0.00
2013-12-1,33.8,29.4,21.0,28.0,23.9,15.5,91,80,69,30.36,30.01,4,1,5,0.00
2013-12-2,37.5,33.8,30.3,35.3,32.1,27.7,98,94,88,30.00,29.86,3,0,3,0.04
2013-12-3,40.1,34.7,29.0,38.2,30.1,21.6,99,84,58,29.86,29.78,9,2,10,0.01
2013-12-4,38.5,33.1,28.4,24.2,21.5,17.7,75,62,53,30.12,29.82,15,3,17,0.00
2013-12-5,36.3,31.5,27.8,35.9,28.2,21.6,99,88,72,30.19,29.81,2,0,3,0.11
2013-12-6,41.8,37.2,33.1,40.5,27.8,11.1,99,72,38,30.02,29.78,15,5,18,0.21
2013-12-7,33.2,26.9,21.3,19.8,11.3,4.8,64,52,40,30.35,29.98,17,9,23,0.00
2013-12-8,25.7,21.5,18.3,9.8,4.7,1.3,62,48,37,30.49,30.34,15,6,19,0.00
2013-12-9,23.8,20.7,17.0,22.1,16.4,7.4,93,84,56,30.45,29.77,2,0,4,0.00
2013-12-10,31.6,26.0,18.4,28.3,19.1,7.2,94,75,57,29.82,29.66,8,2,12,0.00
2013-12-11,24.4,19.4,14.8,16.4,9.5,2.8,89,65,48,30.06,29.83,10,4,18,0.00
2013-12-12,14.3,8.9,6.1,1.1,-4.6,-10.5,68,54,40,30.19,29.92,14,6,17,0.00
2013-12-13,12.8,8.2,0.3,5.1,-2.6,-14.1,83,62,41,30.31,29.83,17,8,21,0.00
2013-12-14,9.9,4.2,-2.8,1.8,-10.2,-15.6,82,52,35,30.54,30.32,5,1,6,0.00
2013-12-15,23.9,18.1,6.1,19.4,13.4,2.0,90,82,67,30.29,29.40,15,5,16,0.00
2013-12-16,19.9,14.0,3.4,13.4,-0.6,-11.5,83,53,31,30.11,29.57,21,6,23,0.00
2013-12-17,9.7,3.9,-5.0,5.6,-6.4,-14.1,84,63,45,30.24,30.03,4,1,6,0.00
2013-12-18,28.4,20.5,9.3,16.4,12.6,5.2,86,72,51,30.00,29.79,15,3,17,0.01
2013-12-19,35.3,28.7,21.6,25.9,20.3,13.5,89,71,57,30.00,29.83,11,3,11,0.00
2013-12-20,34.6,31.8,29.4,30.3,27.3,24.1,94,84,68,30.03,29.83,9,1,14,0.00
2013-12-21,49.2,36.1,30.0,44.9,33.5,28.2,96,91,80,29.86,29.75,4,1,6,0.24
2013-12-22,36.2,30.6,26.0,35.4,29.6,24.8,97,96,95,29.98,29.81,4,1,5,0.47
2013-12-23,33.4,29.1,25.8,32.9,27.9,24.6,99,95,79,30.04,29.92,0,0,0,0.00
2013-12-24,29.8,23.6,8.6,23.6,14.4,-2.1,85,68,53,30.13,29.96,12,3,16,0.00
2013-12-25,18.6,10.1,3.0,6.1,-0.7,-9.9,82,62,46,30.49,30.11,15,4,19,0.00
2013-12-26,26.0,16.2,9.2,18.3,11.4,3.4,90,81,64,30.44,30.03,20,2,20,0.00
2013-12-27,28.4,25.6,21.9,19.1,14.9,11.6,78,64,49,30.11,30.05,11,4,18,0.00
2013-12-28,38.0,28.1,16.2,28.7,20.8,11.9,86,74,64,30.07,29.85,14,3,16,0.01
2013-12-29,37.0,31.1,28.2,31.2,28.0,25.3,97,88,69,29.92,29.49,7,1,8,0.00
2013-12-30,37.2,20.3,2.6,33.4,11.1,-10.8,98,68,41,30.09,29.47,19,7,25,0.00
2013-12-31,14.9,4.7,-2.0,4.1,-5.2,-13.2,82,64,48,30.08,29.95,6,1,7,0.00
2014-1-1,15.6,11.6,7.2,4.6,-0.7,-7.6,81,58,44,30.31,30.02,16,6,20,0.00
2014-1-2,7.4,1.6,-3.3,-0.9,-5.8,-11.1,80,71,42,30.32,29.95,14,2,14,0.00